sensor_id;sensor_type;location;lat;lon;timestamp;P1;durP1;ratioP1;P2;durP2;ratioP2
21814;SDS011;11069;48.988;8.450;2023-07-08T00:00:18;9.45;;;5.75;;
21814;SDS011;11069;48.988;8.450;2023-07-08T00:02:44;10.68;;;5.05;;
21814;SDS011;11069;48.988;8.450;2023-07-08T00:05:11;8.70;;;4.97;;
21814;SDS011;11069;48.988;8.450;2023-07-08T00:07:38;7.85;;;4.65;;
21814;SDS011;11069;48.988;8.450;2023-07-08T00:10:18;9.18;;;5.10;;
21814;SDS011;11069;48.988;8.450;2023-07-08T00:12:44;8.63;;;4.55;;
21814;SDS011;11069;48.988;8.450;2023-07-08T00:15:12;8.02;;;5.05;;
21814;SDS011;11069;48.988;8.450;2023-07-08T00:17:38;8.43;;;5.28;;
21814;SDS011;11069;48.988;8.450;2023-07-08T00:23:00;8.85;;;5.00;;
21814;SDS011;11069;48.988;8.450;2023-07-08T00:25:26;8.23;;;5.07;;
21814;SDS011;11069;48.988;8.450;2023-07-08T00:27:52;9.63;;;5.40;;
21814;SDS011;11069;48.988;8.450;2023-07-08T00:32:57;8.68;;;5.28;;
21814;SDS011;11069;48.988;8.450;2023-07-08T00:37:59;8.38;;;5.20;;
21814;SDS011;11069;48.988;8.450;2023-07-08T00:40:29;7.90;;;4.97;;
21814;SDS011;11069;48.988;8.450;2023-07-08T00:42:57;9.02;;;5.07;;
21814;SDS011;11069;48.988;8.450;2023-07-08T00:48:45;9.95;;;5.72;;
21814;SDS011;11069;48.988;8.450;2023-07-08T00:50:58;8.27;;;4.60;;
21814;SDS011;11069;48.988;8.450;2023-07-08T00:56:08;8.07;;;4.90;;
21814;SDS011;11069;48.988;8.450;2023-07-08T00:58:42;9.00;;;4.82;;
21814;SDS011;11069;48.988;8.450;2023-07-08T01:01:19;8.32;;;5.15;;
21814;SDS011;11069;48.988;8.450;2023-07-08T01:03:47;6.93;;;4.43;;
21814;SDS011;11069;48.988;8.450;2023-07-08T01:06:18;8.87;;;5.47;;
21814;SDS011;11069;48.988;8.450;2023-07-08T01:08:46;7.60;;;4.95;;
21814;SDS011;11069;48.988;8.450;2023-07-08T01:11:17;9.07;;;5.10;;
21814;SDS011;11069;48.988;8.450;2023-07-08T01:13:46;9.88;;;5.63;;
21814;SDS011;11069;48.988;8.450;2023-07-08T01:16:14;8.77;;;5.45;;
21814;SDS011;11069;48.988;8.450;2023-07-08T01:18:40;11.23;;;5.50;;
21814;SDS011;11069;48.988;8.450;2023-07-08T01:21:27;9.95;;;5.68;;
21814;SDS011;11069;48.988;8.450;2023-07-08T01:23:56;8.70;;;5.07;;
21814;SDS011;11069;48.988;8.450;2023-07-08T01:26:25;9.13;;;4.93;;
21814;SDS011;11069;48.988;8.450;2023-07-08T01:28:54;11.15;;;6.00;;
21814;SDS011;11069;48.988;8.450;2023-07-08T01:31:21;7.22;;;4.75;;
21814;SDS011;11069;48.988;8.450;2023-07-08T01:33:48;9.30;;;5.22;;
21814;SDS011;11069;48.988;8.450;2023-07-08T01:36:14;8.90;;;4.70;;
21814;SDS011;11069;48.988;8.450;2023-07-08T01:38:40;8.27;;;5.43;;
21814;SDS011;11069;48.988;8.450;2023-07-08T01:41:10;10.13;;;5.20;;
21814;SDS011;11069;48.988;8.450;2023-07-08T01:43:37;9.75;;;5.70;;
21814;SDS011;11069;48.988;8.450;2023-07-08T01:46:02;11.77;;;5.60;;
21814;SDS011;11069;48.988;8.450;2023-07-08T01:48:31;8.18;;;5.18;;
21814;SDS011;11069;48.988;8.450;2023-07-08T01:51:03;7.70;;;4.93;;
21814;SDS011;11069;48.988;8.450;2023-07-08T01:53:34;8.88;;;5.30;;
21814;SDS011;11069;48.988;8.450;2023-07-08T01:56:01;10.02;;;4.50;;
21814;SDS011;11069;48.988;8.450;2023-07-08T01:58:28;8.85;;;5.40;;
21814;SDS011;11069;48.988;8.450;2023-07-08T02:00:54;9.63;;;4.93;;
21814;SDS011;11069;48.988;8.450;2023-07-08T02:03:20;9.15;;;5.40;;
21814;SDS011;11069;48.988;8.450;2023-07-08T02:05:46;7.88;;;5.05;;
21814;SDS011;11069;48.988;8.450;2023-07-08T02:08:11;8.93;;;5.20;;
21814;SDS011;11069;48.988;8.450;2023-07-08T02:10:38;10.70;;;5.07;;
21814;SDS011;11069;48.988;8.450;2023-07-08T02:13:07;8.85;;;5.32;;
21814;SDS011;11069;48.988;8.450;2023-07-08T02:15:33;9.15;;;5.43;;
21814;SDS011;11069;48.988;8.450;2023-07-08T02:17:58;8.65;;;5.35;;
21814;SDS011;11069;48.988;8.450;2023-07-08T02:20:24;10.52;;;5.40;;
21814;SDS011;11069;48.988;8.450;2023-07-08T02:22:50;11.70;;;5.30;;
21814;SDS011;11069;48.988;8.450;2023-07-08T02:25:15;10.30;;;5.53;;
21814;SDS011;11069;48.988;8.450;2023-07-08T02:27:41;9.63;;;5.18;;
21814;SDS011;11069;48.988;8.450;2023-07-08T02:30:07;9.55;;;5.20;;
21814;SDS011;11069;48.988;8.450;2023-07-08T02:32:36;8.38;;;5.15;;
21814;SDS011;11069;48.988;8.450;2023-07-08T02:35:03;7.82;;;4.78;;
21814;SDS011;11069;48.988;8.450;2023-07-08T02:37:30;10.05;;;5.50;;
21814;SDS011;11069;48.988;8.450;2023-07-08T02:39:55;9.70;;;5.93;;
21814;SDS011;11069;48.988;8.450;2023-07-08T02:42:21;8.75;;;5.10;;
21814;SDS011;11069;48.988;8.450;2023-07-08T02:44:47;8.40;;;5.38;;
21814;SDS011;11069;48.988;8.450;2023-07-08T02:47:12;7.68;;;4.82;;
21814;SDS011;11069;48.988;8.450;2023-07-08T02:49:38;8.88;;;5.07;;
21814;SDS011;11069;48.988;8.450;2023-07-08T02:52:03;7.97;;;4.85;;
21814;SDS011;11069;48.988;8.450;2023-07-08T02:54:29;8.60;;;5.40;;
21814;SDS011;11069;48.988;8.450;2023-07-08T02:56:54;8.27;;;5.18;;
21814;SDS011;11069;48.988;8.450;2023-07-08T02:59:20;10.95;;;5.55;;
21814;SDS011;11069;48.988;8.450;2023-07-08T03:01:46;8.75;;;5.45;;
21814;SDS011;11069;48.988;8.450;2023-07-08T03:04:11;8.52;;;5.03;;
21814;SDS011;11069;48.988;8.450;2023-07-08T03:06:39;9.15;;;5.30;;
21814;SDS011;11069;48.988;8.450;2023-07-08T03:09:05;9.65;;;5.40;;
21814;SDS011;11069;48.988;8.450;2023-07-08T03:11:31;9.20;;;5.75;;
21814;SDS011;11069;48.988;8.450;2023-07-08T03:13:57;9.98;;;5.60;;
21814;SDS011;11069;48.988;8.450;2023-07-08T03:16:23;9.18;;;5.65;;
21814;SDS011;11069;48.988;8.450;2023-07-08T03:18:48;8.15;;;5.57;;
21814;SDS011;11069;48.988;8.450;2023-07-08T03:21:15;8.88;;;5.45;;
21814;SDS011;11069;48.988;8.450;2023-07-08T03:23:42;9.13;;;5.35;;
21814;SDS011;11069;48.988;8.450;2023-07-08T03:26:12;8.57;;;5.03;;
21814;SDS011;11069;48.988;8.450;2023-07-08T03:28:46;9.02;;;5.28;;
21814;SDS011;11069;48.988;8.450;2023-07-08T03:31:15;9.30;;;5.43;;
21814;SDS011;11069;48.988;8.450;2023-07-08T03:33:41;10.55;;;5.38;;
21814;SDS011;11069;48.988;8.450;2023-07-08T03:36:09;8.48;;;5.07;;
21814;SDS011;11069;48.988;8.450;2023-07-08T03:38:38;8.45;;;5.28;;
21814;SDS011;11069;48.988;8.450;2023-07-08T03:41:06;8.35;;;5.32;;
21814;SDS011;11069;48.988;8.450;2023-07-08T03:43:32;10.07;;;5.53;;
21814;SDS011;11069;48.988;8.450;2023-07-08T03:45:57;8.80;;;4.70;;
21814;SDS011;11069;48.988;8.450;2023-07-08T03:48:23;8.80;;;5.15;;
21814;SDS011;11069;48.988;8.450;2023-07-08T03:50:48;9.27;;;5.20;;
21814;SDS011;11069;48.988;8.450;2023-07-08T03:53:14;9.15;;;5.25;;
21814;SDS011;11069;48.988;8.450;2023-07-08T03:55:40;10.93;;;6.10;;
21814;SDS011;11069;48.988;8.450;2023-07-08T03:58:08;8.57;;;5.18;;
21814;SDS011;11069;48.988;8.450;2023-07-08T04:00:34;9.25;;;5.03;;
21814;SDS011;11069;48.988;8.450;2023-07-08T04:02:59;9.52;;;5.38;;
21814;SDS011;11069;48.988;8.450;2023-07-08T04:05:25;8.10;;;4.60;;
21814;SDS011;11069;48.988;8.450;2023-07-08T04:07:50;8.50;;;5.22;;
21814;SDS011;11069;48.988;8.450;2023-07-08T04:10:16;9.73;;;5.72;;
21814;SDS011;11069;48.988;8.450;2023-07-08T04:12:42;8.73;;;5.18;;
21814;SDS011;11069;48.988;8.450;2023-07-08T04:15:08;8.30;;;5.03;;
21814;SDS011;11069;48.988;8.450;2023-07-08T04:17:36;8.98;;;4.80;;
21814;SDS011;11069;48.988;8.450;2023-07-08T04:20:08;12.60;;;6.57;;
21814;SDS011;11069;48.988;8.450;2023-07-08T04:22:36;9.70;;;5.53;;
21814;SDS011;11069;48.988;8.450;2023-07-08T04:25:02;12.48;;;5.70;;
21814;SDS011;11069;48.988;8.450;2023-07-08T04:27:30;8.10;;;5.32;;
21814;SDS011;11069;48.988;8.450;2023-07-08T04:29:57;8.50;;;5.32;;
21814;SDS011;11069;48.988;8.450;2023-07-08T04:32:22;8.80;;;5.43;;
21814;SDS011;11069;48.988;8.450;2023-07-08T04:34:51;8.38;;;5.35;;
21814;SDS011;11069;48.988;8.450;2023-07-08T04:37:17;12.40;;;5.93;;
21814;SDS011;11069;48.988;8.450;2023-07-08T04:39:44;9.45;;;5.85;;
21814;SDS011;11069;48.988;8.450;2023-07-08T04:42:10;7.55;;;4.78;;
21814;SDS011;11069;48.988;8.450;2023-07-08T04:44:38;9.25;;;5.20;;
21814;SDS011;11069;48.988;8.450;2023-07-08T04:47:03;8.30;;;5.03;;
21814;SDS011;11069;48.988;8.450;2023-07-08T04:49:29;8.43;;;5.55;;
21814;SDS011;11069;48.988;8.450;2023-07-08T04:51:56;9.35;;;5.60;;
21814;SDS011;11069;48.988;8.450;2023-07-08T04:54:24;8.38;;;5.00;;
21814;SDS011;11069;48.988;8.450;2023-07-08T04:56:50;8.75;;;5.43;;
21814;SDS011;11069;48.988;8.450;2023-07-08T04:59:21;8.43;;;5.25;;
21814;SDS011;11069;48.988;8.450;2023-07-08T05:01:48;8.07;;;4.88;;
21814;SDS011;11069;48.988;8.450;2023-07-08T05:04:15;8.00;;;4.85;;
21814;SDS011;11069;48.988;8.450;2023-07-08T05:06:42;12.68;;;5.85;;
21814;SDS011;11069;48.988;8.450;2023-07-08T05:09:08;8.80;;;5.15;;
21814;SDS011;11069;48.988;8.450;2023-07-08T05:11:34;8.45;;;5.38;;
21814;SDS011;11069;48.988;8.450;2023-07-08T05:14:01;9.13;;;5.03;;
21814;SDS011;11069;48.988;8.450;2023-07-08T05:16:29;8.90;;;5.57;;
21814;SDS011;11069;48.988;8.450;2023-07-08T05:18:57;8.23;;;5.32;;
21814;SDS011;11069;48.988;8.450;2023-07-08T05:21:23;10.57;;;5.95;;
21814;SDS011;11069;48.988;8.450;2023-07-08T05:23:49;9.02;;;5.50;;
21814;SDS011;11069;48.988;8.450;2023-07-08T05:26:15;11.05;;;6.25;;
21814;SDS011;11069;48.988;8.450;2023-07-08T05:28:42;9.25;;;5.55;;
21814;SDS011;11069;48.988;8.450;2023-07-08T05:31:07;10.95;;;6.13;;
21814;SDS011;11069;48.988;8.450;2023-07-08T05:33:33;10.93;;;6.38;;
21814;SDS011;11069;48.988;8.450;2023-07-08T05:35:59;10.48;;;5.85;;
21814;SDS011;11069;48.988;8.450;2023-07-08T05:38:26;13.85;;;6.40;;
21814;SDS011;11069;48.988;8.450;2023-07-08T05:40:56;9.80;;;6.00;;
21814;SDS011;11069;48.988;8.450;2023-07-08T05:43:25;10.65;;;5.75;;
21814;SDS011;11069;48.988;8.450;2023-07-08T05:45:51;8.75;;;5.28;;
21814;SDS011;11069;48.988;8.450;2023-07-08T05:48:21;8.50;;;6.03;;
21814;SDS011;11069;48.988;8.450;2023-07-08T05:50:47;8.82;;;6.15;;
21814;SDS011;11069;48.988;8.450;2023-07-08T05:53:13;10.15;;;5.95;;
21814;SDS011;11069;48.988;8.450;2023-07-08T05:55:39;10.48;;;6.25;;
21814;SDS011;11069;48.988;8.450;2023-07-08T05:58:07;10.68;;;5.90;;
21814;SDS011;11069;48.988;8.450;2023-07-08T06:00:33;10.07;;;6.68;;
21814;SDS011;11069;48.988;8.450;2023-07-08T06:02:59;10.60;;;6.03;;
21814;SDS011;11069;48.988;8.450;2023-07-08T06:05:24;11.05;;;6.10;;
21814;SDS011;11069;48.988;8.450;2023-07-08T06:07:50;11.60;;;6.20;;
21814;SDS011;11069;48.988;8.450;2023-07-08T06:10:16;10.38;;;6.43;;
21814;SDS011;11069;48.988;8.450;2023-07-08T06:12:41;11.02;;;6.45;;
21814;SDS011;11069;48.988;8.450;2023-07-08T06:15:07;10.07;;;5.82;;
21814;SDS011;11069;48.988;8.450;2023-07-08T06:17:33;9.40;;;4.75;;
21814;SDS011;11069;48.988;8.450;2023-07-08T06:19:58;9.45;;;5.40;;
21814;SDS011;11069;48.988;8.450;2023-07-08T06:22:24;9.05;;;5.43;;
21814;SDS011;11069;48.988;8.450;2023-07-08T06:24:49;7.63;;;5.15;;
21814;SDS011;11069;48.988;8.450;2023-07-08T06:27:15;8.48;;;5.07;;
21814;SDS011;11069;48.988;8.450;2023-07-08T06:29:41;7.80;;;5.13;;
21814;SDS011;11069;48.988;8.450;2023-07-08T06:32:07;6.97;;;4.32;;
21814;SDS011;11069;48.988;8.450;2023-07-08T06:34:33;7.70;;;4.43;;
21814;SDS011;11069;48.988;8.450;2023-07-08T06:36:58;6.65;;;4.25;;
21814;SDS011;11069;48.988;8.450;2023-07-08T06:39:24;7.55;;;4.18;;
21814;SDS011;11069;48.988;8.450;2023-07-08T06:41:49;11.75;;;4.70;;
21814;SDS011;11069;48.988;8.450;2023-07-08T06:44:15;6.60;;;4.05;;
21814;SDS011;11069;48.988;8.450;2023-07-08T06:46:41;7.80;;;4.50;;
21814;SDS011;11069;48.988;8.450;2023-07-08T06:49:06;5.65;;;3.97;;
21814;SDS011;11069;48.988;8.450;2023-07-08T06:51:34;7.05;;;4.20;;
21814;SDS011;11069;48.988;8.450;2023-07-08T06:53:59;7.57;;;4.53;;
21814;SDS011;11069;48.988;8.450;2023-07-08T06:56:29;10.95;;;5.20;;
21814;SDS011;11069;48.988;8.450;2023-07-08T06:58:55;9.02;;;4.65;;
21814;SDS011;11069;48.988;8.450;2023-07-08T07:01:20;7.25;;;4.40;;
21814;SDS011;11069;48.988;8.450;2023-07-08T07:03:46;7.50;;;4.78;;
21814;SDS011;11069;48.988;8.450;2023-07-08T07:06:11;8.15;;;5.18;;
21814;SDS011;11069;48.988;8.450;2023-07-08T07:08:37;6.38;;;4.47;;
21814;SDS011;11069;48.988;8.450;2023-07-08T07:11:02;12.02;;;4.70;;
21814;SDS011;11069;48.988;8.450;2023-07-08T07:13:28;8.75;;;4.78;;
21814;SDS011;11069;48.988;8.450;2023-07-08T07:15:54;8.52;;;3.85;;
21814;SDS011;11069;48.988;8.450;2023-07-08T07:18:20;8.15;;;4.40;;
21814;SDS011;11069;48.988;8.450;2023-07-08T07:20:49;8.98;;;4.57;;
21814;SDS011;11069;48.988;8.450;2023-07-08T07:23:18;11.43;;;4.35;;
21814;SDS011;11069;48.988;8.450;2023-07-08T07:25:44;6.93;;;4.35;;
21814;SDS011;11069;48.988;8.450;2023-07-08T07:28:12;8.18;;;3.70;;
21814;SDS011;11069;48.988;8.450;2023-07-08T07:30:38;6.20;;;3.83;;
21814;SDS011;11069;48.988;8.450;2023-07-08T07:33:04;7.00;;;3.90;;
21814;SDS011;11069;48.988;8.450;2023-07-08T07:35:29;6.68;;;3.42;;
21814;SDS011;11069;48.988;8.450;2023-07-08T07:37:55;5.22;;;2.75;;
21814;SDS011;11069;48.988;8.450;2023-07-08T07:40:21;6.32;;;3.08;;
21814;SDS011;11069;48.988;8.450;2023-07-08T07:42:46;4.35;;;2.30;;
21814;SDS011;11069;48.988;8.450;2023-07-08T07:45:12;4.93;;;2.55;;
21814;SDS011;11069;48.988;8.450;2023-07-08T07:47:38;4.18;;;2.30;;
21814;SDS011;11069;48.988;8.450;2023-07-08T07:50:05;5.03;;;2.70;;
21814;SDS011;11069;48.988;8.450;2023-07-08T07:52:32;3.95;;;2.35;;
21814;SDS011;11069;48.988;8.450;2023-07-08T07:54:57;3.47;;;2.50;;
21814;SDS011;11069;48.988;8.450;2023-07-08T07:57:23;5.55;;;2.25;;
21814;SDS011;11069;48.988;8.450;2023-07-08T07:59:49;6.32;;;2.47;;
21814;SDS011;11069;48.988;8.450;2023-07-08T08:02:15;2.88;;;2.25;;
21814;SDS011;11069;48.988;8.450;2023-07-08T08:04:42;3.55;;;2.70;;
21814;SDS011;11069;48.988;8.450;2023-07-08T08:07:11;3.72;;;2.40;;
21814;SDS011;11069;48.988;8.450;2023-07-08T08:09:37;3.25;;;2.08;;
21814;SDS011;11069;48.988;8.450;2023-07-08T08:12:03;4.68;;;2.75;;
21814;SDS011;11069;48.988;8.450;2023-07-08T08:14:29;3.17;;;2.03;;
21814;SDS011;11069;48.988;8.450;2023-07-08T08:16:54;3.75;;;2.30;;
21814;SDS011;11069;48.988;8.450;2023-07-08T08:19:20;4.10;;;2.15;;
21814;SDS011;11069;48.988;8.450;2023-07-08T08:21:46;6.03;;;2.22;;
21814;SDS011;11069;48.988;8.450;2023-07-08T08:24:11;2.83;;;2.22;;
21814;SDS011;11069;48.988;8.450;2023-07-08T08:26:37;3.85;;;2.00;;
21814;SDS011;11069;48.988;8.450;2023-07-08T08:29:02;3.88;;;2.10;;
21814;SDS011;11069;48.988;8.450;2023-07-08T08:31:28;4.72;;;2.15;;
21814;SDS011;11069;48.988;8.450;2023-07-08T08:33:56;3.63;;;2.03;;
21814;SDS011;11069;48.988;8.450;2023-07-08T08:36:21;2.33;;;1.65;;
21814;SDS011;11069;48.988;8.450;2023-07-08T08:38:47;3.17;;;2.13;;
21814;SDS011;11069;48.988;8.450;2023-07-08T08:41:14;3.28;;;1.60;;
21814;SDS011;11069;48.988;8.450;2023-07-08T08:43:41;5.63;;;1.80;;
21814;SDS011;11069;48.988;8.450;2023-07-08T08:46:16;3.55;;;1.92;;
21814;SDS011;11069;48.988;8.450;2023-07-08T08:48:57;2.85;;;1.20;;
21814;SDS011;11069;48.988;8.450;2023-07-08T08:51:27;1.35;;;1.10;;
21814;SDS011;11069;48.988;8.450;2023-07-08T08:53:56;4.30;;;1.45;;
21814;SDS011;11069;48.988;8.450;2023-07-08T08:56:31;2.78;;;1.25;;
21814;SDS011;11069;48.988;8.450;2023-07-08T08:59:13;1.88;;;1.35;;
21814;SDS011;11069;48.988;8.450;2023-07-08T09:01:40;2.50;;;1.40;;
21814;SDS011;11069;48.988;8.450;2023-07-08T09:04:08;1.38;;;1.00;;
21814;SDS011;11069;48.988;8.450;2023-07-08T09:06:42;2.13;;;1.35;;
21814;SDS011;11069;48.988;8.450;2023-07-08T09:12:12;5.40;;;1.35;;
21814;SDS011;11069;48.988;8.450;2023-07-08T09:14:43;1.58;;;1.20;;
21814;SDS011;11069;48.988;8.450;2023-07-08T09:22:43;3.13;;;1.20;;
21814;SDS011;11069;48.988;8.450;2023-07-08T09:25:35;1.88;;;1.30;;
21814;SDS011;11069;48.988;8.450;2023-07-08T09:28:39;1.90;;;1.20;;
21814;SDS011;11069;48.988;8.450;2023-07-08T09:31:07;1.70;;;1.13;;
21814;SDS011;11069;48.988;8.450;2023-07-08T09:33:43;1.70;;;1.48;;
21814;SDS011;11069;48.988;8.450;2023-07-08T09:36:16;2.78;;;1.10;;
21814;SDS011;11069;48.988;8.450;2023-07-08T09:38:46;2.58;;;1.20;;
21814;SDS011;11069;48.988;8.450;2023-07-08T09:41:13;2.65;;;1.60;;
21814;SDS011;11069;48.988;8.450;2023-07-08T09:43:42;2.97;;;1.30;;
21814;SDS011;11069;48.988;8.450;2023-07-08T09:46:11;2.03;;;1.30;;
21814;SDS011;11069;48.988;8.450;2023-07-08T09:48:38;2.20;;;1.17;;
21814;SDS011;11069;48.988;8.450;2023-07-08T09:51:04;2.92;;;1.10;;
21814;SDS011;11069;48.988;8.450;2023-07-08T09:53:30;1.75;;;1.20;;
21814;SDS011;11069;48.988;8.450;2023-07-08T09:55:56;1.95;;;1.20;;
21814;SDS011;11069;48.988;8.450;2023-07-08T09:58:30;1.67;;;1.00;;
21814;SDS011;11069;48.988;8.450;2023-07-08T10:01:00;1.10;;;0.90;;
21814;SDS011;11069;48.988;8.450;2023-07-08T10:03:32;2.63;;;1.65;;
21814;SDS011;11069;48.988;8.450;2023-07-08T10:06:02;1.45;;;1.00;;
21814;SDS011;11069;48.988;8.450;2023-07-08T10:08:34;1.63;;;1.05;;
21814;SDS011;11069;48.988;8.450;2023-07-08T10:14:02;2.33;;;1.30;;
21814;SDS011;11069;48.988;8.450;2023-07-08T10:16:32;1.42;;;1.00;;
21814;SDS011;11069;48.988;8.450;2023-07-08T10:18:59;1.77;;;1.25;;
21814;SDS011;11069;48.988;8.450;2023-07-08T10:21:29;1.35;;;0.95;;
21814;SDS011;11069;48.988;8.450;2023-07-08T10:27:00;3.00;;;1.40;;
21814;SDS011;11069;48.988;8.450;2023-07-08T10:29:48;2.47;;;1.23;;
21814;SDS011;11069;48.988;8.450;2023-07-08T10:32:32;1.38;;;1.10;;
21814;SDS011;11069;48.988;8.450;2023-07-08T10:48:41;1.70;;;1.30;;
21814;SDS011;11069;48.988;8.450;2023-07-08T10:59:07;2.38;;;1.55;;
21814;SDS011;11069;48.988;8.450;2023-07-08T11:01:59;1.90;;;1.30;;
21814;SDS011;11069;48.988;8.450;2023-07-08T11:04:43;2.92;;;1.48;;
21814;SDS011;11069;48.988;8.450;2023-07-08T11:09:49;4.53;;;1.65;;
21814;SDS011;11069;48.988;8.450;2023-07-08T11:15:06;2.65;;;1.50;;
21814;SDS011;11069;48.988;8.450;2023-07-08T11:20:18;3.05;;;1.38;;
21814;SDS011;11069;48.988;8.450;2023-07-08T11:22:52;3.47;;;1.30;;
21814;SDS011;11069;48.988;8.450;2023-07-08T11:25:29;4.80;;;1.63;;
21814;SDS011;11069;48.988;8.450;2023-07-08T11:27:57;2.00;;;1.42;;
21814;SDS011;11069;48.988;8.450;2023-07-08T11:30:28;1.60;;;1.50;;
21814;SDS011;11069;48.988;8.450;2023-07-08T11:33:00;4.22;;;1.67;;
21814;SDS011;11069;48.988;8.450;2023-07-08T11:35:38;2.35;;;1.42;;
21814;SDS011;11069;48.988;8.450;2023-07-08T11:38:14;2.53;;;1.65;;
21814;SDS011;11069;48.988;8.450;2023-07-08T11:43:27;2.70;;;1.77;;
21814;SDS011;11069;48.988;8.450;2023-07-08T11:46:02;3.13;;;1.75;;
21814;SDS011;11069;48.988;8.450;2023-07-08T11:48:31;2.75;;;1.60;;
21814;SDS011;11069;48.988;8.450;2023-07-08T11:51:05;4.25;;;1.55;;
21814;SDS011;11069;48.988;8.450;2023-07-08T11:53:34;3.25;;;1.95;;
21814;SDS011;11069;48.988;8.450;2023-07-08T12:08:55;3.25;;;2.08;;
21814;SDS011;11069;48.988;8.450;2023-07-08T12:11:33;3.83;;;1.75;;
21814;SDS011;11069;48.988;8.450;2023-07-08T12:14:01;4.00;;;1.70;;
21814;SDS011;11069;48.988;8.450;2023-07-08T12:16:29;2.90;;;1.90;;
21814;SDS011;11069;48.988;8.450;2023-07-08T12:18:57;2.92;;;1.80;;
21814;SDS011;11069;48.988;8.450;2023-07-08T12:21:26;3.28;;;1.70;;
21814;SDS011;11069;48.988;8.450;2023-07-08T12:23:52;2.72;;;1.88;;
21814;SDS011;11069;48.988;8.450;2023-07-08T12:26:19;3.03;;;1.77;;
21814;SDS011;11069;48.988;8.450;2023-07-08T12:28:45;3.33;;;1.70;;
21814;SDS011;11069;48.988;8.450;2023-07-08T12:31:20;2.30;;;1.70;;
21814;SDS011;11069;48.988;8.450;2023-07-08T12:33:48;3.15;;;1.70;;
21814;SDS011;11069;48.988;8.450;2023-07-08T12:38:44;2.25;;;1.80;;
21814;SDS011;11069;48.988;8.450;2023-07-08T12:41:12;3.33;;;1.70;;
21814;SDS011;11069;48.988;8.450;2023-07-08T12:43:39;4.15;;;1.70;;
21814;SDS011;11069;48.988;8.450;2023-07-08T12:46:05;2.72;;;1.67;;
21814;SDS011;11069;48.988;8.450;2023-07-08T12:48:34;2.92;;;1.70;;
21814;SDS011;11069;48.988;8.450;2023-07-08T12:50:59;2.42;;;1.70;;
21814;SDS011;11069;48.988;8.450;2023-07-08T12:53:25;3.55;;;1.88;;
21814;SDS011;11069;48.988;8.450;2023-07-08T12:55:51;3.30;;;1.67;;
21814;SDS011;11069;48.988;8.450;2023-07-08T12:58:23;3.63;;;2.05;;
21814;SDS011;11069;48.988;8.450;2023-07-08T13:00:51;3.00;;;1.85;;
21814;SDS011;11069;48.988;8.450;2023-07-08T13:03:18;3.70;;;2.15;;
21814;SDS011;11069;48.988;8.450;2023-07-08T13:05:47;4.30;;;2.22;;
21814;SDS011;11069;48.988;8.450;2023-07-08T13:08:15;2.08;;;1.65;;
21814;SDS011;11069;48.988;8.450;2023-07-08T13:10:43;3.95;;;2.10;;
21814;SDS011;11069;48.988;8.450;2023-07-08T13:13:15;2.95;;;1.95;;
21814;SDS011;11069;48.988;8.450;2023-07-08T13:15:49;2.72;;;1.88;;
21814;SDS011;11069;48.988;8.450;2023-07-08T13:18:15;4.10;;;2.10;;
21814;SDS011;11069;48.988;8.450;2023-07-08T13:20:52;3.42;;;2.38;;
21814;SDS011;11069;48.988;8.450;2023-07-08T13:23:18;3.40;;;1.80;;
21814;SDS011;11069;48.988;8.450;2023-07-08T13:25:46;3.30;;;1.88;;
21814;SDS011;11069;48.988;8.450;2023-07-08T13:28:22;6.22;;;1.90;;
21814;SDS011;11069;48.988;8.450;2023-07-08T13:31:00;3.30;;;2.08;;
21814;SDS011;11069;48.988;8.450;2023-07-08T13:33:33;4.47;;;2.22;;
21814;SDS011;11069;48.988;8.450;2023-07-08T13:36:03;2.55;;;1.98;;
21814;SDS011;11069;48.988;8.450;2023-07-08T13:38:34;3.00;;;2.00;;
21814;SDS011;11069;48.988;8.450;2023-07-08T13:41:04;3.78;;;2.00;;
21814;SDS011;11069;48.988;8.450;2023-07-08T13:43:33;3.63;;;2.10;;
21814;SDS011;11069;48.988;8.450;2023-07-08T13:46:00;3.08;;;1.90;;
21814;SDS011;11069;48.988;8.450;2023-07-08T13:48:28;2.90;;;2.20;;
21814;SDS011;11069;48.988;8.450;2023-07-08T13:51:03;3.35;;;1.88;;
21814;SDS011;11069;48.988;8.450;2023-07-08T13:56:15;4.93;;;2.08;;
21814;SDS011;11069;48.988;8.450;2023-07-08T13:58:50;3.38;;;1.85;;
21814;SDS011;11069;48.988;8.450;2023-07-08T14:01:23;3.95;;;2.10;;
21814;SDS011;11069;48.988;8.450;2023-07-08T14:03:50;4.20;;;1.70;;
21814;SDS011;11069;48.988;8.450;2023-07-08T14:06:19;5.05;;;2.05;;
21814;SDS011;11069;48.988;8.450;2023-07-08T14:08:54;3.95;;;2.08;;
21814;SDS011;11069;48.988;8.450;2023-07-08T14:11:21;3.63;;;2.10;;
21814;SDS011;11069;48.988;8.450;2023-07-08T14:13:47;3.72;;;2.20;;
21814;SDS011;11069;48.988;8.450;2023-07-08T14:16:23;3.63;;;2.20;;
21814;SDS011;11069;48.988;8.450;2023-07-08T14:18:52;2.93;;;1.97;;
21814;SDS011;11069;48.988;8.450;2023-07-08T14:21:19;4.20;;;2.00;;
21814;SDS011;11069;48.988;8.450;2023-07-08T14:23:44;4.25;;;2.00;;
21814;SDS011;11069;48.988;8.450;2023-07-08T14:26:10;4.30;;;2.08;;
21814;SDS011;11069;48.988;8.450;2023-07-08T14:28:36;3.25;;;2.33;;
21814;SDS011;11069;48.988;8.450;2023-07-08T14:31:01;2.90;;;1.88;;
21814;SDS011;11069;48.988;8.450;2023-07-08T14:33:27;3.30;;;2.15;;
21814;SDS011;11069;48.988;8.450;2023-07-08T14:35:53;2.38;;;1.63;;
21814;SDS011;11069;48.988;8.450;2023-07-08T14:38:18;3.70;;;2.20;;
21814;SDS011;11069;48.988;8.450;2023-07-08T14:40:45;3.90;;;2.25;;
21814;SDS011;11069;48.988;8.450;2023-07-08T14:45:48;3.83;;;2.15;;
21814;SDS011;11069;48.988;8.450;2023-07-08T14:48:15;3.03;;;2.17;;
21814;SDS011;11069;48.988;8.450;2023-07-08T14:50:41;3.85;;;2.10;;
21814;SDS011;11069;48.988;8.450;2023-07-08T14:53:06;4.50;;;2.60;;
21814;SDS011;11069;48.988;8.450;2023-07-08T14:55:32;4.28;;;2.22;;
21814;SDS011;11069;48.988;8.450;2023-07-08T14:57:59;3.33;;;1.98;;
21814;SDS011;11069;48.988;8.450;2023-07-08T15:00:25;4.70;;;2.20;;
21814;SDS011;11069;48.988;8.450;2023-07-08T15:02:51;3.63;;;1.80;;
21814;SDS011;11069;48.988;8.450;2023-07-08T15:05:18;2.72;;;2.28;;
21814;SDS011;11069;48.988;8.450;2023-07-08T15:07:49;4.97;;;1.88;;
21814;SDS011;11069;48.988;8.450;2023-07-08T15:10:16;3.75;;;2.10;;
21814;SDS011;11069;48.988;8.450;2023-07-08T15:12:42;2.25;;;1.85;;
21814;SDS011;11069;48.988;8.450;2023-07-08T15:15:13;2.40;;;1.92;;
21814;SDS011;11069;48.988;8.450;2023-07-08T15:17:48;3.38;;;2.17;;
21814;SDS011;11069;48.988;8.450;2023-07-08T15:20:14;3.03;;;2.15;;
21814;SDS011;11069;48.988;8.450;2023-07-08T15:22:41;4.28;;;1.85;;
21814;SDS011;11069;48.988;8.450;2023-07-08T15:25:09;3.30;;;2.10;;
21814;SDS011;11069;48.988;8.450;2023-07-08T15:27:36;4.78;;;2.40;;
21814;SDS011;11069;48.988;8.450;2023-07-08T15:30:02;3.40;;;2.20;;
21814;SDS011;11069;48.988;8.450;2023-07-08T15:32:28;2.45;;;2.17;;
21814;SDS011;11069;48.988;8.450;2023-07-08T15:34:54;5.07;;;2.30;;
21814;SDS011;11069;48.988;8.450;2023-07-08T15:37:19;4.47;;;1.90;;
21814;SDS011;11069;48.988;8.450;2023-07-08T15:39:45;2.75;;;1.90;;
21814;SDS011;11069;48.988;8.450;2023-07-08T15:42:13;3.13;;;2.17;;
21814;SDS011;11069;48.988;8.450;2023-07-08T15:44:39;4.17;;;1.57;;
21814;SDS011;11069;48.988;8.450;2023-07-08T15:47:05;4.15;;;2.13;;
21814;SDS011;11069;48.988;8.450;2023-07-08T15:49:36;2.65;;;2.03;;
21814;SDS011;11069;48.988;8.450;2023-07-08T15:52:05;3.17;;;2.20;;
21814;SDS011;11069;48.988;8.450;2023-07-08T15:56:57;3.15;;;2.13;;
21814;SDS011;11069;48.988;8.450;2023-07-08T15:59:24;2.95;;;1.98;;
21814;SDS011;11069;48.988;8.450;2023-07-08T16:01:52;5.30;;;2.17;;
21814;SDS011;11069;48.988;8.450;2023-07-08T16:04:34;2.60;;;1.65;;
21814;SDS011;11069;48.988;8.450;2023-07-08T16:07:02;3.35;;;2.30;;
21814;SDS011;11069;48.988;8.450;2023-07-08T16:09:28;3.10;;;1.90;;
21814;SDS011;11069;48.988;8.450;2023-07-08T16:11:53;3.95;;;2.45;;
21814;SDS011;11069;48.988;8.450;2023-07-08T16:14:19;4.03;;;2.38;;